Mather, CA (95655)

9:22 PM PST on February 13, 2016 (GMT -0800)
Morrison Cr. at McRoberts Dr. | | Change Station
CLOSE
Current Station
Personal Weather Station
Location: Mather, CA
Elevation: 112 ft
Nearby Weather Stations

Elev 112 ft 38.54 °N, 121.27 °W | Updated 1 minute ago

Clear
Clear
53.2 °F
Feels Like 53.2 °F
N
0.0
Wind Variable Wind from South
Gusts 0.0 mph

Today
High -- | Low -- °F
--% Chance of Precip.
Yesterday
High -- | Low -- °F
Precip. -- in
Pressure 30.21 in
Visibility 10.0 miles
Clouds Clear
Dew Point 41 °F
Humidity 64%
Rainfall 0.00 in
Snow Depth Not available.
6:58 AM 5:40 PM
Waxing Crescent, 38% visible
METAR KMHR 140345Z 00000KT 10SM SKC 15/08 A3021
Pressure 30.21 in
Visibility 10.0 miles
Clouds Clear
Dew Point 41 °F
Humidity 64%
Rainfall 0.00 in
Snow Depth Not available.
6:58 AM 5:40 PM
Waxing Crescent, 38% visible
METAR KMHR 140345Z 00000KT 10SM SKC 15/08 A3021

10-Day Weather Forecast

Almanac

Astronomy

Feb. 13, 2016 Rise Set
Actual Time
Civil Twilight
Nautical Twilight
Astronomical Twilight
Moon
Length of Visible Light
Length of Day
Tomorrow will be .
, % of the Moon is Illuminated

Today's Extremes

State Highs State Lows

Community

WunderPhotos

Upload Photos

1,892,748 photos uploaded!

WunderBlog® & News

Nearby

Air Quality

  Air Quality AQ Index Pollutant
Not available.

Snow Depth

Station Depth Elevation

Earthquake Activity

City Distance Mag. Time & Date
Minimum magnitude displayed is 2.5.

Coastal Water Temperatures

Place Temperature

Stations

Nearby Weather Stations

Station Location Temp. Windchill Dew Point Humidity Wind Precip. Elev Updated Type
                   

Watches & Warnings

There are currently no watches in effect.